Time;durP1;ratioP1;P1;durP2;ratioP2;P2;SDS_P1;SDS_P2;PMS_P1;PMS_P2;Temp;Humidity;BMP_temperature;BMP_pressure;BME280_temperature;BME280_humidity;BME280_pressure;Samples;Min_cycle;Max_cycle;Signal;HPM_P1;HPM_P2
2022/06/23 00:02:27;;;;;;;10.98;8.40;;;;;;;-142.64;100.00;58178.75;5073062;28;20061;-57
2022/06/23 00:04:57;;;;;;;11.93;8.57;;;;;;;-142.64;100.00;58178.75;5073420;28;20029;-56
2022/06/23 00:07:26;;;;;;;11.13;8.70;;;;;;;-142.64;100.00;58178.75;5072713;28;20056;-56
2022/06/23 00:09:54;;;;;;;11.50;8.63;;;;;;;-142.64;100.00;58178.75;5074284;28;20028;-56
2022/06/23 00:12:19;;;;;;;9.85;8.05;;;;;;;-142.64;100.00;58178.75;5073014;28;20059;-55
2022/06/23 00:14:46;;;;;;;10.57;8.53;;;;;;;-142.64;100.00;58178.75;5074000;28;20024;-58
2022/06/23 00:17:24;;;;;;;13.80;8.50;;;;;;;-142.64;100.00;58178.75;5072789;28;20293;-57
2022/06/23 00:19:49;;;;;;;10.07;8.60;;;;;;;-142.64;100.00;58178.75;5073909;28;20055;-58
2022/06/23 00:22:17;;;;;;;11.48;8.20;;;;;;;-142.64;100.00;58178.75;5074169;28;20032;-55
2022/06/23 00:24:44;;;;;;;10.45;8.48;;;;;;;-142.64;100.00;58178.75;5074034;28;20081;-59
2022/06/23 00:27:14;;;;;;;9.45;7.97;;;;;;;-142.64;100.00;58178.75;5072643;28;20430;-58
2022/06/23 00:29:40;;;;;;;12.33;9.20;;;;;;;-142.64;100.00;58178.75;5072758;28;20036;-57
2022/06/23 00:32:06;;;;;;;12.55;8.55;;;;;;;-142.64;100.00;58178.75;5072524;28;20119;-57
2022/06/23 00:34:37;;;;;;;11.32;8.23;;;;;;;-142.64;100.00;58178.75;5072603;28;20032;-59
2022/06/23 00:37:06;;;;;;;10.25;7.97;;;;;;;-142.64;100.00;58178.75;5073685;28;20502;-57
2022/06/23 00:39:41;;;;;;;11.43;8.45;;;;;;;-142.64;100.00;58178.75;5072552;28;20024;-55
2022/06/23 00:42:28;;;;;;;10.55;8.02;;;;;;;-142.64;100.00;58178.75;5073621;28;20388;-57
2022/06/23 00:45:12;;;;;;;12.60;8.35;;;;;;;-142.64;100.00;58178.75;5073294;28;20029;-57
2022/06/23 00:47:45;;;;;;;9.68;8.15;;;;;;;-142.64;100.00;58178.75;5073612;28;20434;-56
2022/06/23 00:50:32;;;;;;;12.27;9.20;;;;;;;-142.64;100.00;58178.75;5073288;28;20471;-59
2022/06/23 00:53:12;;;;;;;11.50;8.88;;;;;;;-142.64;100.00;58178.75;5073523;28;20028;-57
2022/06/23 00:55:59;;;;;;;13.00;7.90;;;;;;;-142.64;100.00;58178.75;5073448;28;20476;-57
2022/06/23 00:58:46;;;;;;;12.55;8.38;;;;;;;-142.64;100.00;58178.75;5073384;28;20036;-56
2022/06/23 01:01:27;;;;;;;14.98;9.27;;;;;;;-142.64;100.00;58178.75;5073088;28;20028;-58
2022/06/23 01:03:52;;;;;;;10.52;8.45;;;;;;;-142.64;100.00;58178.75;5072964;28;20036;-58
2022/06/23 01:06:19;;;;;;;11.00;8.90;;;;;;;-142.64;100.00;58178.75;5070880;28;20036;-58
2022/06/23 01:08:58;;;;;;;10.18;8.57;;;;;;;-142.64;100.00;58178.75;5073046;28;20275;-55
2022/06/23 01:11:26;;;;;;;12.40;9.18;;;;;;;-142.64;100.00;58178.75;5073070;28;20054;-58
2022/06/23 01:14:01;;;;;;;12.02;8.30;;;;;;;-142.64;100.00;58178.75;5072869;28;20032;-58
2022/06/23 01:16:31;;;;;;;14.07;9.52;;;;;;;-142.64;100.00;58178.75;5072515;28;20091;-54
2022/06/23 01:19:28;;;;;;;14.98;9.40;;;;;;;-142.64;100.00;58178.75;5071721;28;20028;-54
2022/06/23 01:21:56;;;;;;;15.15;9.30;;;;;;;-142.64;100.00;58178.75;5072687;28;20024;-59
2022/06/23 01:24:44;;;;;;;12.68;8.90;;;;;;;-142.64;100.00;58178.75;5071431;28;20171;-56
2022/06/23 01:27:39;;;;;;;11.05;9.45;;;;;;;-142.64;100.00;58178.75;5071656;28;20074;-57
2022/06/23 01:30:10;;;;;;;14.05;9.73;;;;;;;-142.64;100.00;58178.75;5072729;28;20029;-58
2022/06/23 01:32:41;;;;;;;13.25;9.48;;;;;;;-142.64;100.00;58178.75;5071441;28;20523;-57
2022/06/23 01:35:24;;;;;;;13.10;8.70;;;;;;;-142.64;100.00;58178.75;5071555;28;20032;-53
2022/06/23 01:37:57;;;;;;;15.77;9.75;;;;;;;-142.64;100.00;58178.75;5054720;28;20051;-57
2022/06/23 01:40:28;;;;;;;11.85;9.32;;;;;;;-142.64;100.00;58178.75;5054751;28;20098;-52
2022/06/23 01:42:59;;;;;;;10.88;9.55;;;;;;;-142.64;100.00;58178.75;5072517;28;20029;-57
2022/06/23 01:45:33;;;;;;;11.75;8.75;;;;;;;-142.64;100.00;58178.75;5072748;28;20024;-54
2022/06/23 01:48:12;;;;;;;13.07;9.23;;;;;;;-142.64;100.00;58178.75;5072840;28;20040;-54
2022/06/23 01:50:56;;;;;;;14.25;9.23;;;;;;;-142.64;100.00;58178.75;5071040;28;20065;-55
2022/06/23 01:53:29;;;;;;;16.73;9.73;;;;;;;-142.64;100.00;58178.75;5070991;28;20021;-56
2022/06/23 01:56:27;;;;;;;13.25;9.30;;;;;;;-142.64;100.00;58178.75;5071321;28;20032;-57
2022/06/23 01:59:26;;;;;;;15.15;10.05;;;;;;;-142.64;100.00;58178.75;5071201;28;20032;-56
2022/06/23 02:02:10;;;;;;;12.02;9.65;;;;;;;-142.64;100.00;58178.75;5072276;28;20028;-57
2022/06/23 02:04:36;;;;;;;12.20;9.52;;;;;;;-142.64;100.00;58178.75;5072466;28;20521;-56
2022/06/23 02:07:10;;;;;;;12.82;9.95;;;;;;;-142.64;100.00;58178.75;5071265;28;20028;-57
2022/06/23 02:09:46;;;;;;;13.68;9.32;;;;;;;-142.64;100.00;58178.75;5070948;28;20094;-56
2022/06/23 02:12:17;;;;;;;13.70;10.38;;;;;;;-142.64;100.00;58178.75;5072097;28;20039;-58
2022/06/23 02:14:48;;;;;;;;;;;;;;;-142.64;100.00;58178.75;5071462;28;20467;-56
2022/06/23 02:17:28;;;;;;;13.02;9.80;;;;;;;-142.64;100.00;58178.75;5074737;28;19916;-57
2022/06/23 02:19:56;;;;;;;14.43;10.30;;;;;;;-142.64;100.00;58178.75;5075589;28;20498;-57
2022/06/23 02:22:31;;;;;;;14.10;10.35;;;;;;;-142.64;100.00;58178.75;5074999;28;20066;-57
2022/06/23 02:25:06;;;;;;;11.68;10.23;;;;;;;-142.64;100.00;58178.75;5075210;28;20388;-56
2022/06/23 02:27:44;;;;;;;15.05;10.85;;;;;;;-142.64;100.00;58178.75;5076322;28;20127;-61
2022/06/23 02:30:33;;;;;;;14.35;10.43;;;;;;;-142.64;100.00;58178.75;5074706;28;20369;-57
2022/06/23 02:33:25;;;;;;;13.95;10.38;;;;;;;-142.64;100.00;58178.75;5074618;28;20491;-57
2022/06/23 02:36:00;;;;;;;12.73;10.38;;;;;;;-142.64;100.00;58178.75;5074119;28;20090;-55
2022/06/23 02:38:37;;;;;;;12.30;10.20;;;;;;;-142.64;100.00;58178.75;5076181;28;20427;-58
2022/06/23 02:41:04;;;;;;;13.63;9.90;;;;;;;-142.64;100.00;58178.75;5075805;28;20040;-54
2022/06/23 02:43:29;;;;;;;13.40;9.93;;;;;;;-142.64;100.00;58178.75;5075870;28;20029;-58
2022/06/23 02:46:06;;;;;;;17.47;10.97;;;;;;;-142.64;100.00;58178.75;5075945;28;20035;-57
2022/06/23 02:48:50;;;;;;;15.40;9.93;;;;;;;-142.64;100.00;58178.75;5075865;28;20282;-56
2022/06/23 02:51:37;;;;;;;11.90;10.70;;;;;;;-142.64;100.00;58178.75;5075663;28;20071;-58
2022/06/23 02:54:06;;;;;;;15.23;11.52;;;;;;;-142.64;100.00;58178.75;5075807;28;20472;-56
2022/06/23 02:56:38;;;;;;;15.68;10.55;;;;;;;-142.64;100.00;58178.75;5075621;28;20498;-57
2022/06/23 02:59:07;;;;;;;14.93;10.52;;;;;;;-142.64;100.00;58178.75;5075573;28;20033;-59
2022/06/23 03:01:40;;;;;;;12.93;11.32;;;;;;;-142.64;100.00;58178.75;5075316;28;20047;-57
2022/06/23 03:04:16;;;;;;;13.63;10.85;;;;;;;-142.64;100.00;58178.75;5074032;28;20116;-57
2022/06/23 03:06:49;;;;;;;14.45;10.85;;;;;;;-142.64;100.00;58178.75;5075555;28;20033;-57
2022/06/23 03:09:23;;;;;;;15.43;10.35;;;;;;;-142.64;100.00;58178.75;5075416;28;20024;-57
2022/06/23 03:12:09;;;;;;;15.15;11.27;;;;;;;-142.64;100.00;58178.75;5074168;28;20074;-55
2022/06/23 03:15:24;;;;;;;11.38;10.23;;;;;;;-142.64;100.00;58178.75;5075193;28;20036;-57
2022/06/23 03:18:03;;;;;;;19.45;12.32;;;;;;;-142.64;100.00;58178.75;5072962;28;20082;-56
2022/06/23 03:20:34;;;;;;;15.27;11.93;;;;;;;-142.64;100.00;58178.75;5073845;28;20033;-56
2022/06/23 03:23:14;;;;;;;14.48;11.32;;;;;;;-142.64;100.00;58178.75;5075379;28;20028;-59
2022/06/23 03:25:41;;;;;;;14.75;11.57;;;;;;;-142.64;100.00;58178.75;5074992;28;20029;-57
2022/06/23 03:28:16;;;;;;;18.73;10.77;;;;;;;-142.64;100.00;58178.75;5073955;28;20028;-57
2022/06/23 03:30:45;;;;;;;15.75;12.07;;;;;;;-142.64;100.00;58178.75;5057041;28;20094;-54
2022/06/23 03:33:16;;;;;;;13.45;10.45;;;;;;;-142.64;100.00;58178.75;5074923;28;20060;-59
2022/06/23 03:35:43;;;;;;;;;;;;;;;-142.64;100.00;58178.75;5075300;28;20028;-58
2022/06/23 03:41:36;;;;;;;13.68;11.30;;;;;;;-142.64;100.00;58178.75;5056983;28;20158;-56
2022/06/23 03:44:02;;;;;;;14.15;12.02;;;;;;;-142.64;100.00;58178.75;5073757;28;20031;-57
2022/06/23 03:46:40;;;;;;;14.45;11.80;;;;;;;-142.64;100.00;58178.75;5073608;28;20074;-55
2022/06/23 03:49:24;;;;;;;14.07;12.07;;;;;;;-142.64;100.00;58178.75;5073480;28;20403;-57
2022/06/23 03:51:58;;;;;;;16.65;11.73;;;;;;;-142.64;100.00;58178.75;5074705;28;20047;-59
2022/06/23 03:54:27;;;;;;;12.48;11.18;;;;;;;-142.64;100.00;58178.75;5073299;28;20048;-57
2022/06/23 03:56:57;;;;;;;15.43;11.80;;;;;;;-142.64;100.00;58178.75;5056760;28;20038;-55
2022/06/23 03:59:49;;;;;;;17.33;12.05;;;;;;;-142.64;100.00;58178.75;5074833;28;20048;-59
2022/06/23 04:02:19;;;;;;;14.70;11.15;;;;;;;-142.64;100.00;58178.75;5073132;28;20051;-60
2022/06/23 04:04:55;;;;;;;14.98;10.80;;;;;;;-142.64;100.00;58178.75;5072972;28;20083;-57
2022/06/23 04:07:30;;;;;;;18.17;11.73;;;;;;;-142.64;100.00;58178.75;5073104;28;20028;-55
2022/06/23 04:10:27;;;;;;;14.65;11.27;;;;;;;-142.64;100.00;58178.75;5074290;28;20043;-56
2022/06/23 04:12:55;;;;;;;14.20;10.68;;;;;;;-142.64;100.00;58178.75;5074173;28;20047;-59
2022/06/23 04:15:31;;;;;;;16.27;10.90;;;;;;;-142.64;100.00;58178.75;5074044;28;20447;-57
2022/06/23 04:18:27;;;;;;;14.98;11.55;;;;;;;-142.64;100.00;58178.75;5072879;28;20044;-60
2022/06/23 04:21:00;;;;;;;15.07;12.65;;;;;;;-142.64;100.00;58178.75;5068318;28;20090;-56
2022/06/23 04:23:32;;;;;;;15.80;11.13;;;;;;;-142.64;100.00;58178.75;5072713;28;20032;-57
2022/06/23 04:26:19;;;;;;;14.68;10.73;;;;;;;-142.64;100.00;58178.75;5072629;28;20036;-58
2022/06/23 04:28:48;;;;;;;13.20;10.23;;;;;;;-142.64;100.00;58178.75;5072465;28;20034;-55
2022/06/23 04:31:20;;;;;;;12.50;11.05;;;;;;;-142.64;100.00;58178.75;5073660;28;20025;-57
2022/06/23 04:33:47;;;;;;;14.88;11.25;;;;;;;-142.64;100.00;58178.75;5073758;28;20035;-58
2022/06/23 04:36:24;;;;;;;15.05;11.50;;;;;;;-142.64;100.00;58178.75;5072599;28;20033;-56
2022/06/23 04:38:55;;;;;;;13.45;11.73;;;;;;;-142.64;100.00;58178.75;5073445;28;20028;-56
2022/06/23 04:41:28;;;;;;;14.90;11.50;;;;;;;-142.64;100.00;58178.75;5073564;28;20067;-56
2022/06/23 04:43:58;;;;;;;13.30;10.25;;;;;;;-142.64;100.00;58178.75;5073512;28;20021;-58
2022/06/23 04:46:49;;;;;;;14.93;10.60;;;;;;;-142.64;100.00;58178.75;5072109;28;20035;-58
2022/06/23 04:49:29;;;;;;;13.40;10.00;;;;;;;-142.64;100.00;58178.75;5072304;28;20033;-57
2022/06/23 04:52:12;;;;;;;16.23;11.77;;;;;;;-142.64;100.00;58178.75;5073448;28;20123;-57
2022/06/23 04:54:50;;;;;;;15.60;11.60;;;;;;;-142.64;100.00;58178.75;5055396;28;20383;-58
2022/06/23 04:57:17;;;;;;;15.45;10.88;;;;;;;-142.64;100.00;58178.75;5073501;28;20079;-59
2022/06/23 04:59:44;;;;;;;12.70;10.63;;;;;;;-142.64;100.00;58178.75;5072134;28;20037;-58
2022/06/23 05:02:36;;;;;;;14.55;11.60;;;;;;;-142.64;100.00;58178.75;5073133;28;20036;-54
2022/06/23 05:05:08;;;;;;;16.33;10.15;;;;;;;-142.64;100.00;58178.75;5073077;28;20101;-58
2022/06/23 05:07:50;;;;;;;12.40;10.55;;;;;;;-142.64;100.00;58178.75;5073275;28;20052;-54
2022/06/23 05:10:19;;;;;;;11.10;9.93;;;;;;;-142.64;100.00;58178.75;5071700;28;20379;-54
2022/06/23 05:12:50;;;;;;;13.63;10.38;;;;;;;-142.64;100.00;58178.75;5072881;28;20039;-57
2022/06/23 05:15:18;;;;;;;12.65;9.93;;;;;;;-142.64;100.00;58178.75;5072924;28;20028;-58
2022/06/23 05:17:53;;;;;;;13.27;10.52;;;;;;;-142.64;100.00;58178.75;5073237;28;20053;-56
2022/06/23 05:20:34;;;;;;;12.82;9.10;;;;;;;-142.64;100.00;58178.75;5073031;28;20036;-60
2022/06/23 05:23:00;;;;;;;13.13;10.07;;;;;;;-142.64;100.00;58178.75;5071427;28;20042;-57
2022/06/23 05:25:37;;;;;;;11.45;10.13;;;;;;;-142.64;100.00;58178.75;5071477;28;20478;-56
2022/06/23 05:28:07;;;;;;;11.27;9.65;;;;;;;-142.64;100.00;58178.75;5072219;28;20368;-57
2022/06/23 05:30:37;;;;;;;12.63;9.93;;;;;;;-142.64;100.00;58178.75;5072834;28;20108;-56
2022/06/23 05:33:13;;;;;;;11.50;9.23;;;;;;;-142.64;100.00;58178.75;5072613;28;20063;-57
2022/06/23 05:35:42;;;;;;;11.25;9.02;;;;;;;-142.64;100.00;58178.75;5071317;28;20111;-58
2022/06/23 05:38:30;;;;;;;10.32;9.43;;;;;;;-142.64;100.00;58178.75;5072775;28;20032;-56
2022/06/23 05:40:58;;;;;;;10.23;9.15;;;;;;;-142.64;100.00;58178.75;5071327;28;20044;-58
2022/06/23 05:43:25;;;;;;;11.15;9.15;;;;;;;-142.64;100.00;58178.75;5070505;28;20035;-59
2022/06/23 05:45:59;;;;;;;10.15;9.00;;;;;;;-142.64;100.00;58178.75;5070999;28;20098;-59
2022/06/23 05:48:30;;;;;;;9.48;8.20;;;;;;;-142.64;100.00;58178.75;5070937;28;20032;-58
2022/06/23 05:51:10;;;;;;;11.43;8.43;;;;;;;-142.64;100.00;58178.75;5071446;28;20522;-56
2022/06/23 05:53:53;;;;;;;9.23;7.90;;;;;;;-142.64;100.00;58178.75;5072288;28;20475;-57
2022/06/23 05:56:28;;;;;;;10.40;7.85;;;;;;;-142.64;100.00;58178.75;5072357;28;20039;-58
2022/06/23 05:59:02;;;;;;;10.65;7.85;;;;;;;-142.64;100.00;58178.75;5072185;28;20090;-56
2022/06/23 06:01:34;;;;;;;12.85;8.25;;;;;;;-142.64;100.00;58178.75;5054121;28;21051;-58
2022/06/23 06:04:24;;;;;;;11.32;8.32;;;;;;;-142.64;100.00;58178.75;5072124;28;20036;-58
2022/06/23 06:06:49;;;;;;;9.67;7.60;;;;;;;-142.64;100.00;58178.75;5070781;28;20119;-57
2022/06/23 06:09:37;;;;;;;11.15;8.27;;;;;;;-142.64;100.00;58178.75;5071008;28;20056;-58
2022/06/23 06:12:12;;;;;;;10.43;8.45;;;;;;;-142.64;100.00;58178.75;5072172;28;20086;-56
2022/06/23 06:14:41;;;;;;;13.75;8.57;;;;;;;-142.64;100.00;58178.75;5071931;28;20052;-59
2022/06/23 06:17:07;;;;;;;8.23;7.22;;;;;;;-142.64;100.00;58178.75;5070375;28;20454;-59
2022/06/23 06:19:33;;;;;;;9.00;8.13;;;;;;;-142.64;100.00;58178.75;5071889;28;20045;-58
2022/06/23 06:22:20;;;;;;;11.75;8.23;;;;;;;-142.64;100.00;58178.75;5070773;28;20032;-59
2022/06/23 06:24:48;;;;;;;10.48;8.10;;;;;;;-142.64;100.00;58178.75;5071007;28;20040;-59
2022/06/23 06:27:13;;;;;;;8.73;7.60;;;;;;;-142.64;100.00;58178.75;5072123;28;20037;-58
2022/06/23 06:29:41;;;;;;;10.15;8.25;;;;;;;-142.64;100.00;58178.75;5072059;28;20086;-58
2022/06/23 06:32:21;;;;;;;10.63;8.40;;;;;;;-142.64;100.00;58178.75;5070502;28;20028;-57
2022/06/23 06:35:26;;;;;;;13.50;7.65;;;;;;;-142.64;100.00;58178.75;5071823;28;20032;-58
2022/06/23 06:38:03;;;;;;;9.80;7.20;;;;;;;-142.64;100.00;58178.75;5071619;28;20039;-59
2022/06/23 06:40:29;;;;;;;10.68;7.05;;;;;;;-142.64;100.00;58178.75;5070508;28;20037;-56
2022/06/23 06:42:59;;;;;;;8.93;7.28;;;;;;;-142.64;100.00;58178.75;5071733;28;20071;-57
2022/06/23 06:45:26;;;;;;;10.23;8.60;;;;;;;-142.64;100.00;58178.75;5071722;28;20068;-58
2022/06/23 06:47:52;;;;;;;11.00;8.05;;;;;;;-142.64;100.00;58178.75;5071891;28;20031;-57
2022/06/23 06:50:37;;;;;;;14.00;8.40;;;;;;;-142.64;100.00;58178.75;5070528;28;20111;-56
2022/06/23 06:53:07;;;;;;;11.00;8.23;;;;;;;-142.64;100.00;58178.75;5071957;28;20043;-57
2022/06/23 06:55:37;;;;;;;9.90;7.85;;;;;;;-142.64;100.00;58178.75;5070510;28;20082;-57
2022/06/23 06:58:24;;;;;;;8.52;7.60;;;;;;;-142.64;100.00;58178.75;5070359;28;20048;-57
2022/06/23 07:01:01;;;;;;;8.10;7.28;;;;;;;-142.64;100.00;58178.75;5070389;28;20544;-56
2022/06/23 07:03:26;;;;;;;11.57;7.65;;;;;;;-142.64;100.00;58178.75;5073043;28;20111;-57
2022/06/23 07:06:02;;;;;;;8.93;7.22;;;;;;;-142.64;100.00;58178.75;5073968;28;20217;-56
2022/06/23 07:08:40;;;;;;;9.05;7.05;;;;;;;-142.64;100.00;58178.75;5074023;28;20082;-57
2022/06/23 07:11:13;;;;;;;10.85;7.40;;;;;;;-142.64;100.00;58178.75;5075242;28;20040;-58
2022/06/23 07:13:45;;;;;;;9.32;7.07;;;;;;;-142.64;100.00;58178.75;5073339;28;20032;-57
2022/06/23 07:16:17;;;;;;;10.23;7.35;;;;;;;-142.64;100.00;58178.75;5071492;28;20471;-57
2022/06/23 07:18:48;;;;;;;10.48;6.38;;;;;;;-142.64;100.00;58178.75;5072851;28;20439;-57
2022/06/23 07:21:17;;;;;;;;;;;;;;;-142.64;100.00;58178.75;5056793;28;20603;-56
2022/06/23 07:23:47;;;;;;;9.65;7.10;;;;;;;-142.64;100.00;58178.75;5073529;28;19916;-57
2022/06/23 07:27:04;;;;;;;10.38;6.60;;;;;;;-142.64;100.00;58178.75;5055926;28;20036;-55
2022/06/23 07:29:48;;;;;;;7.70;6.38;;;;;;;-142.64;100.00;58178.75;5061459;28;20129;-58
2022/06/23 07:32:29;;;;;;;9.90;6.80;;;;;;;-142.64;100.00;58178.75;5073870;28;20111;-57
2022/06/23 07:35:05;;;;;;;11.50;7.40;;;;;;;-142.64;100.00;58178.75;5073703;28;20052;-55
2022/06/23 07:37:52;;;;;;;8.60;6.55;;;;;;;-142.64;100.00;58178.75;5072592;28;20036;-58
2022/06/23 07:40:19;;;;;;;7.78;6.70;;;;;;;-142.64;100.00;58178.75;5073692;28;20039;-55
2022/06/23 07:43:08;;;;;;;11.68;7.93;;;;;;;-142.64;100.00;58178.75;5072731;28;20036;-57
2022/06/23 07:45:57;;;;;;;8.93;6.88;;;;;;;-142.64;100.00;58178.75;5073541;28;20134;-57
2022/06/23 07:48:23;;;;;;;8.68;6.82;;;;;;;-142.64;100.00;58178.75;5055841;28;20024;-57
2022/06/23 07:50:48;;;;;;;9.73;7.03;;;;;;;-142.64;100.00;58178.75;5072290;28;20033;-58
2022/06/23 07:53:19;;;;;;;6.90;6.22;;;;;;;-142.64;100.00;58178.75;5072275;28;20032;-57
2022/06/23 07:55:45;;;;;;;11.18;6.85;;;;;;;-142.64;100.00;58178.75;5072136;28;20028;-57
2022/06/23 07:58:14;;;;;;;8.90;7.25;;;;;;;-142.64;100.00;58178.75;5072326;28;20048;-57
2022/06/23 08:00:41;;;;;;;9.30;6.00;;;;;;;-142.64;100.00;58178.75;5073222;28;20082;-57
2022/06/23 08:03:32;;;;;;;9.25;6.90;;;;;;;-142.64;100.00;58178.75;5073060;28;20045;-56
2022/06/23 08:06:05;;;;;;;9.95;6.68;;;;;;;-142.64;100.00;58178.75;5073557;28;20162;-57
2022/06/23 08:08:33;;;;;;;9.40;6.07;;;;;;;-142.64;100.00;58178.75;5071894;28;20123;-56
2022/06/23 08:13:49;;;;;;;11.85;7.07;;;;;;;-142.64;100.00;58178.75;5071717;28;20135;-55
2022/06/23 08:19:30;;;;;;;6.97;6.28;;;;;;;-142.64;100.00;58178.75;5072292;28;20139;-56
2022/06/23 08:22:31;;;;;;;9.50;6.53;;;;;;;-142.64;100.00;58178.75;5073454;28;20045;-57
2022/06/23 08:24:57;;;;;;;;;;;;;;;-142.64;100.00;58178.75;5068403;28;20101;-58
2022/06/23 08:27:28;;;;;;;8.30;7.00;;;;;;;-142.64;100.00;58178.75;5073056;28;19920;-57
2022/06/23 08:29:56;;;;;;;11.07;6.47;;;;;;;-142.64;100.00;58178.75;5071596;28;20036;-56
2022/06/23 08:32:23;;;;;;;9.05;6.63;;;;;;;-142.64;100.00;58178.75;5071967;28;20035;-56
2022/06/23 08:34:56;;;;;;;7.95;5.97;;;;;;;-142.64;100.00;58178.75;5072658;28;20097;-56
2022/06/23 08:37:23;;;;;;;8.82;6.55;;;;;;;-142.64;100.00;58178.75;5071427;28;20037;-57
2022/06/23 08:39:48;;;;;;;8.63;6.20;;;;;;;-142.64;100.00;58178.75;5071033;28;20583;-57
2022/06/23 08:42:23;;;;;;;11.13;6.63;;;;;;;-142.64;100.00;58178.75;5072486;28;20060;-57
2022/06/23 08:45:01;;;;;;;7.93;6.50;;;;;;;-142.64;100.00;58178.75;5072450;28;20310;-53
2022/06/23 08:47:32;;;;;;;13.45;7.07;;;;;;;-142.64;100.00;58178.75;5072352;28;20067;-55
2022/06/23 08:50:21;;;;;;;8.98;6.65;;;;;;;-142.64;100.00;58178.75;5072202;28;20107;-55
2022/06/23 08:52:49;;;;;;;9.48;6.22;;;;;;;-142.64;100.00;58178.75;5072435;28;20028;-57
2022/06/23 08:55:21;;;;;;;8.60;6.72;;;;;;;-142.64;100.00;58178.75;5072057;28;20082;-56
2022/06/23 08:57:59;;;;;;;9.25;6.60;;;;;;;-142.64;100.00;58178.75;5071027;28;20083;-57
2022/06/23 09:00:32;;;;;;;10.05;7.53;;;;;;;-142.64;100.00;58178.75;5070653;28;20115;-55
2022/06/23 09:03:17;;;;;;;14.40;6.90;;;;;;;-142.64;100.00;58178.75;5070937;28;20076;-56
2022/06/23 09:06:00;;;;;;;8.73;6.82;;;;;;;-142.64;100.00;58178.75;5071536;28;20056;-56
2022/06/23 09:08:47;;;;;;;9.57;7.40;;;;;;;-142.64;100.00;58178.75;5072019;28;20028;-53
2022/06/23 09:11:20;;;;;;;10.60;6.75;;;;;;;-142.64;100.00;58178.75;5054266;28;20028;-55
2022/06/23 09:14:08;;;;;;;9.68;7.10;;;;;;;-142.64;100.00;58178.75;5070942;28;20028;-56
2022/06/23 09:16:39;;;;;;;9.82;6.65;;;;;;;-142.64;100.00;58178.75;5071827;28;20119;-54
2022/06/23 09:19:15;;;;;;;9.23;7.47;;;;;;;-142.64;100.00;58178.75;5071469;28;20131;-56
2022/06/23 09:21:53;;;;;;;10.00;7.45;;;;;;;-142.64;100.00;58178.75;5071703;28;20395;-53
2022/06/23 09:24:55;;;;;;;10.68;8.05;;;;;;;-142.64;100.00;58178.75;5069918;28;20471;-59
2022/06/23 09:27:24;;;;;;;13.13;8.50;;;;;;;-142.64;100.00;58178.75;5052622;28;20494;-59
2022/06/23 09:30:08;;;;;;;11.48;8.43;;;;;;;-142.64;100.00;58178.75;5071364;28;20486;-59
2022/06/23 09:32:57;;;;;;;9.80;7.30;;;;;;;-142.64;100.00;58178.75;5053669;28;20029;-58
2022/06/23 09:35:44;;;;;;;11.32;7.72;;;;;;;-142.64;100.00;58178.75;5070260;28;20533;-58
2022/06/23 09:38:48;;;;;;;12.38;7.88;;;;;;;-142.64;100.00;58178.75;5071793;28;20036;-57
2022/06/23 09:41:43;;;;;;;10.90;7.88;;;;;;;-142.64;100.00;58178.75;5065778;28;20051;-58
2022/06/23 09:44:47;;;;;;;11.35;7.60;;;;;;;-142.64;100.00;58178.75;5070897;28;20047;-57
2022/06/23 09:47:34;;;;;;;10.55;7.45;;;;;;;-142.64;100.00;58178.75;5070020;28;20040;-55
2022/06/23 09:50:29;;;;;;;10.85;7.78;;;;;;;-142.64;100.00;58178.75;5069961;28;20503;-58
2022/06/23 09:53:25;;;;;;;11.95;7.93;;;;;;;-142.64;100.00;58178.75;5069942;28;20452;-58
2022/06/23 09:56:09;;;;;;;11.18;6.88;;;;;;;-142.64;100.00;58178.75;5070221;28;20040;-58
2022/06/23 09:59:01;;;;;;;16.80;8.88;;;;;;;-142.64;100.00;58178.75;5071289;28;20036;-58
2022/06/23 10:01:45;;;;;;;8.88;7.57;;;;;;;-142.64;100.00;58178.75;5070993;28;20090;-59
2022/06/23 10:04:25;;;;;;;12.95;7.65;;;;;;;-142.64;100.00;58178.75;5071376;28;20037;-58
2022/06/23 10:07:11;;;;;;;10.68;8.35;;;;;;;-142.64;100.00;58178.75;5071234;28;20033;-56
2022/06/23 10:10:01;;;;;;;11.02;7.40;;;;;;;-142.64;100.00;58178.75;5071267;28;20028;-57
2022/06/23 10:12:29;;;;;;;;;;;;;;;-142.64;100.00;58178.75;5070109;28;20476;-57
2022/06/23 10:15:04;;;;;;;9.75;7.22;;;;;;;-142.64;100.00;58178.75;5070916;28;19913;-58
2022/06/23 10:18:00;;;;;;;9.77;6.97;;;;;;;-142.64;100.00;58178.75;5070783;28;20072;-57
2022/06/23 10:20:40;;;;;;;10.25;6.15;;;;;;;-142.64;100.00;58178.75;5071043;28;20036;-56
2022/06/23 10:23:54;;;;;;;8.35;5.38;;;;;;;-142.64;100.00;58178.75;5071045;28;20032;-55
2022/06/23 10:26:53;;;;;;;11.98;8.32;;;;;;;-142.64;100.00;58178.75;5050856;28;20041;-57
2022/06/23 10:29:32;;;;;;;9.33;6.97;;;;;;;-142.64;100.00;58178.75;5070938;28;20578;-56
2022/06/23 10:32:31;;;;;;;10.68;7.95;;;;;;;-142.64;100.00;58178.75;5070726;28;20139;-57
2022/06/23 10:35:18;;;;;;;12.50;7.57;;;;;;;-142.64;100.00;58178.75;5071062;28;20032;-58
2022/06/23 10:38:24;;;;;;;12.45;7.43;;;;;;;-142.64;100.00;58178.75;5071469;28;20035;-56
2022/06/23 10:41:21;;;;;;;17.35;8.38;;;;;;;-142.64;100.00;58178.75;5078097;28;20066;-54
2022/06/23 10:44:05;;;;;;;12.23;5.85;;;;;;;-142.64;100.00;58178.75;5076936;28;20032;-55
2022/06/23 10:46:42;;;;;;;9.88;6.53;;;;;;;-142.64;100.00;58178.75;5074734;28;20037;-57
2022/06/23 10:49:13;;;;;;;6.90;4.65;;;;;;;-142.64;100.00;58178.75;5074794;28;20766;-56
2022/06/23 10:52:16;;;;;;;9.70;5.00;;;;;;;-142.64;100.00;58178.75;5073303;28;20066;-57
2022/06/23 10:54:50;;;;;;;7.65;4.55;;;;;;;-142.64;100.00;58178.75;5074531;28;20426;-57
2022/06/23 10:57:21;;;;;;;8.55;4.50;;;;;;;-142.64;100.00;58178.75;5073261;28;20447;-58
2022/06/23 11:00:08;;;;;;;8.48;5.53;;;;;;;-142.64;100.00;58178.75;5074529;28;20399;-58
2022/06/23 11:02:48;;;;;;;9.75;5.88;;;;;;;-142.64;100.00;58178.75;5074545;28;20075;-55
2022/06/23 11:05:35;;;;;;;;;;;;;;;-142.64;100.00;58178.75;5074823;28;20708;-56
2022/06/23 11:08:15;;;;;;;9.90;5.43;;;;;;;-142.64;100.00;58178.75;5074533;28;19951;-57
2022/06/23 11:11:11;;;;;;;11.07;5.22;;;;;;;-142.64;100.00;58178.75;5074358;28;20032;-53
2022/06/23 11:13:43;;;;;;;8.98;6.03;;;;;;;-142.64;100.00;58178.75;5074229;28;20028;-58
2022/06/23 11:16:57;;;;;;;11.18;6.47;;;;;;;-142.64;100.00;58178.75;5074268;28;20060;-55
2022/06/23 11:19:33;;;;;;;10.05;5.78;;;;;;;-142.64;100.00;58178.75;5067903;28;20044;-58
2022/06/23 11:22:29;;;;;;;7.57;5.50;;;;;;;-142.64;100.00;58178.75;5073907;28;20418;-58
2022/06/23 11:25:07;;;;;;;10.07;6.05;;;;;;;-142.64;100.00;58178.75;5074036;28;20031;-56
2022/06/23 11:27:47;;;;;;;14.30;6.90;;;;;;;-142.64;100.00;58178.75;5073765;28;20082;-59
2022/06/23 11:30:44;;;;;;;11.38;5.70;;;;;;;-142.64;100.00;58178.75;5072610;28;20037;-58
2022/06/23 11:33:44;;;;;;;10.50;6.03;;;;;;;-142.64;100.00;58178.75;5073403;28;20039;-59
2022/06/23 11:36:46;;;;;;;12.27;6.22;;;;;;;-142.64;100.00;58178.75;5051178;28;20040;-60
2022/06/23 11:39:32;;;;;;;10.52;5.50;;;;;;;-142.64;100.00;58178.75;5073906;28;20044;-59
2022/06/23 11:42:07;;;;;;;9.52;5.93;;;;;;;-142.64;100.00;58178.75;5072374;28;20078;-58
2022/06/23 11:44:54;;;;;;;15.45;5.88;;;;;;;-142.64;100.00;58178.75;5072470;28;20064;-59
2022/06/23 11:47:44;;;;;;;10.38;4.95;;;;;;;-142.64;100.00;58178.75;5073527;28;20028;-58
2022/06/23 11:50:31;;;;;;;12.57;6.10;;;;;;;-142.64;100.00;58178.75;5072692;28;20039;-57
2022/06/23 11:53:09;;;;;;;7.68;5.28;;;;;;;-142.64;100.00;58178.75;5073500;28;20054;-57
2022/06/23 11:55:55;;;;;;;8.90;5.45;;;;;;;-142.64;100.00;58178.75;5055525;28;20123;-58
2022/06/23 11:58:24;;;;;;;12.40;6.38;;;;;;;-142.64;100.00;58178.75;5073439;28;20043;-56
2022/06/23 12:01:08;;;;;;;6.75;4.68;;;;;;;-142.64;100.00;58178.75;5073074;28;20123;-58